Accueil
METAR-TAF:

METAR-TAF

Aéroports :

Ajaccio, France

Aéroport d'Ajaccio-Napoléon-Bonaparte

latitude: 41-55N, longitude: 008-48E, altitude: 6 m

Observation

Le bulletin a été fait il y a 25 minutes, à 20:30 UTC
Vent 3 kt de nord-est
Température 16°C
Humidité 77%
Pression 1018 hPa
Visibilité: 9000 m

METAR: LFKJ 242030Z AUTO 04003KT 9000 NSC 16/12 Q1018 NOSIG

Heure: 22:55 (20:55 UTC)

Prévision

Le bulletin a été fait il y a 55 minutes, à 20:00 UTC
Prévision valable du 24 à 21 UTC au 25 à 21 UTC
Vent 4 kt de nord-est
Visibilité 10 km ou plus
pas de nuages en-dessous de 1500 mètres et pas de cumulonimbus.
Temporairement
du 25 à 00 UTC au 25 à 06 UTC
Visibilité: 6000 m
Nuages fragmentés à une hauteur de 2600 ft
Evoluant progressivement
du 25 à 07 UTC au 25 à 10 UTC
Vent 10 kt de sud-ouest

TAF: LFKJ 242000Z 2421/2521 04004KT CAVOK TEMPO 2500/2506 6000 BKN026 BECMG 2507/2510 22010KT

Observations et prévisions météorologiques de plus de 4000 aéroports (messages METAR et TAF).

Les stations disponibles sont représentées par des disques jaunes et rouges sur la carte.

Passer la souris dessus pour voir le nom de la station.

Cliquer dessus pour voir les observations et prévisions météorologiques.

Pour changer de carte: cliquez sur les boutons verts avec une croix noire pour zoomer, sur le bouton vert avec un tiret pour effectuer un zoom arrière, ou sur les flèches vertes pour les cartes adjacentes.


METAR-TAF: